Time;durP1;ratioP1;P1;durP2;ratioP2;P2;SDS_P1;SDS_P2;PMS_P1;PMS_P2;Temp;Humidity;BMP_temperature;BMP_pressure;BME280_temperature;BME280_humidity;BME280_pressure;Samples;Min_cycle;Max_cycle;Signal;HPM_P1;HPM_P2
2023/05/14 00:02:07;;;;;;;;;12.00;10.00;;;;;24.59;39.50;101946.66;6305519;22;45169;-77
2023/05/14 00:04:32;;;;;;;;;11.50;10.00;;;;;24.67;39.38;101961.78;6305556;22;45142;-77
2023/05/14 00:06:58;;;;;;;;;9.67;8.33;;;;;24.74;39.35;101973.41;6304931;22;45154;-77
2023/05/14 00:09:23;;;;;;;;;8.75;8.75;;;;;24.67;39.46;101961.78;6304408;22;46847;-77
2023/05/14 00:11:48;;;;;;;;;10.75;10.75;;;;;24.73;39.42;101959.25;6304737;22;45316;-78
2023/05/14 00:14:14;;;;;;;;;11.25;9.50;;;;;24.74;39.35;101955.59;6305503;22;45417;-78
2023/05/14 00:16:39;;;;;;;;;10.00;10.00;;;;;24.74;39.03;101954.75;6303621;22;45495;-77
2023/05/14 00:19:05;;;;;;;;;11.00;11.00;;;;;24.73;39.08;101931.81;6304913;22;45512;-77
2023/05/14 00:21:31;;;;;;;;;10.67;10.67;;;;;24.75;39.38;101935.13;6304853;22;45396;-76
2023/05/14 00:23:56;;;;;;;;;10.75;9.25;;;;;24.76;38.97;101934.13;6304449;22;45198;-76
2023/05/14 00:26:22;;;;;;;;;7.33;7.33;;;;;24.74;39.03;101915.69;6305243;22;45463;-77
2023/05/14 00:28:47;;;;;;;;;10.00;9.00;;;;;24.78;39.18;101910.00;6304538;22;46132;-77
2023/05/14 00:31:13;;;;;;;;;10.33;9.00;;;;;24.77;39.01;101911.84;6304850;22;45376;-77
2023/05/14 00:33:38;;;;;;;;;14.00;12.00;;;;;24.77;38.97;101919.00;6305295;22;45231;-77
2023/05/14 00:36:04;;;;;;;;;8.67;8.67;;;;;24.67;39.06;101903.25;6305098;22;45412;-77
2023/05/14 00:38:29;;;;;;;;;11.25;9.50;;;;;24.64;39.08;101899.09;6304148;22;47314;-77
2023/05/14 00:40:54;;;;;;;;;10.33;8.33;;;;;24.70;39.28;101929.47;6304659;22;45195;-77
2023/05/14 00:43:21;;;;;;;;;9.67;8.67;;;;;24.70;39.10;101932.97;6305124;22;45643;-77
2023/05/14 00:45:49;;;;;;;;;10.33;10.33;;;;;24.74;38.86;101944.97;6304732;22;45509;-77
2023/05/14 00:48:15;;;;;;;;;10.00;9.00;;;;;24.73;39.20;101931.81;6305052;22;45332;-77
2023/05/14 00:50:41;;;;;;;;;10.67;9.00;;;;;24.72;38.97;101946.94;6304652;22;45336;-77
2023/05/14 00:53:09;;;;;;;;;12.25;11.00;;;;;24.72;39.14;101952.25;6302905;22;45353;-77
2023/05/14 00:55:36;;;;;;;;;9.67;9.00;;;;;24.59;39.03;101936.03;6304782;22;45228;-77
2023/05/14 00:58:06;;;;;;;;;10.50;10.00;;;;;24.72;38.96;101951.44;6304591;22;47023;-77
2023/05/14 01:00:31;;;;;;;;;8.50;8.50;;;;;24.71;38.90;101947.13;6305170;22;45205;-76
2023/05/14 01:03:00;;;;;;;;;11.25;10.50;;;;;24.71;38.99;101960.44;6304681;22;45249;-77
2023/05/14 01:05:31;;;;;;;;;8.75;7.25;;;;;24.66;39.12;101955.63;6304798;22;45277;-77
2023/05/14 01:08:08;;;;;;;;;10.25;10.00;;;;;24.65;39.11;101948.63;6303885;22;45320;-77
2023/05/14 01:10:50;;;;;;;;;8.00;7.00;;;;;24.70;39.20;101953.44;6304536;22;45312;-76
2023/05/14 01:13:22;;;;;;;;;11.33;11.00;;;;;24.68;39.07;101960.75;6304779;22;45261;-77
2023/05/14 01:15:48;;;;;;;;;8.33;8.33;;;;;24.60;39.27;101946.50;6304776;22;45288;-77
2023/05/14 01:18:17;;;;;;;;;9.67;8.33;;;;;24.69;38.92;101959.78;6304317;22;45378;-77
2023/05/14 01:20:44;;;;;;;;;8.33;8.33;;;;;24.61;39.16;101945.50;6304612;22;45257;-77
2023/05/14 01:23:09;;;;;;;;;5.00;5.00;;;;;24.59;39.06;101944.81;6304713;22;45228;-77
2023/05/14 01:25:35;;;;;;;;;8.67;8.67;;;;;24.71;38.95;101963.09;6304601;22;45359;-77
2023/05/14 01:28:22;;;;;;;;;9.00;9.00;;;;;24.71;38.81;101958.59;6304500;22;47028;-76
2023/05/14 01:30:54;;;;;;;;;8.00;8.00;;;;;24.72;38.77;101952.25;6304020;22;45269;-77
2023/05/14 01:33:21;;;;;;;;;9.00;6.67;;;;;24.69;38.78;101947.31;6304773;22;45220;-77
2023/05/14 01:35:47;;;;;;;;;10.67;9.33;;;;;24.74;38.76;101954.75;6304634;22;45282;-77
2023/05/14 01:38:17;;;;;;;;;10.33;8.00;;;;;24.75;38.58;101953.75;6304246;22;46212;-76
2023/05/14 01:40:45;;;;;;;;;8.33;7.33;;;;;24.76;38.73;101951.91;6304401;22;45344;-75
2023/05/14 01:43:11;;;;;;;;;9.00;9.00;;;;;24.72;38.67;101944.28;6305057;22;45235;-77
2023/05/14 01:45:36;;;;;;;;;11.50;9.75;;;;;24.75;38.73;101945.75;6304318;22;45186;-76
2023/05/14 01:48:03;;;;;;;;;10.25;10.25;;;;;24.72;38.51;101930.16;6304581;22;45272;-75
2023/05/14 01:50:29;;;;;;;;;8.67;8.00;;;;;24.71;38.92;101933.81;6304268;22;45371;-77
2023/05/14 01:52:55;;;;;;;;;10.75;9.00;;;;;24.74;38.64;101930.81;6304781;22;45243;-77
2023/05/14 01:55:22;;;;;;;;;11.00;9.50;;;;;24.73;38.84;101937.13;6304741;22;45464;-76
2023/05/14 01:57:47;;;;;;;;;9.33;9.00;;;;;24.65;38.93;101926.50;6304496;22;45301;-76
2023/05/14 02:00:13;;;;;;;;;8.00;8.00;;;;;24.63;38.77;101924.88;6302528;22;46859;-77
2023/05/14 02:02:38;;;;;;;;;7.67;7.33;;;;;24.71;39.16;101945.28;6302890;22;45250;-76
2023/05/14 02:05:05;;;;;;;;;8.67;7.33;;;;;24.71;38.88;101933.81;6304175;22;46267;-76
2023/05/14 02:07:30;;;;;;;;;11.00;9.00;;;;;24.65;38.85;101918.53;6304431;22;45425;-77
2023/05/14 02:09:55;;;;;;;;;6.67;6.67;;;;;24.58;38.83;101915.72;6304140;22;45260;-77
2023/05/14 02:12:21;;;;;;;;;8.67;8.00;;;;;24.69;38.69;101925.19;6304905;22;45281;-77
2023/05/14 02:14:46;;;;;;;;;7.00;7.00;;;;;24.61;38.98;101910.06;6304528;22;45387;-78
2023/05/14 02:17:15;;;;;;;;;8.67;8.67;;;;;24.63;39.02;101924.03;6304587;22;46308;-77
2023/05/14 02:19:40;;;;;;;;;8.33;8.33;;;;;24.69;38.98;101930.50;6303048;22;45315;-77
2023/05/14 02:22:06;;;;;;;;;9.00;9.00;;;;;24.69;38.60;101925.19;6304232;22;45362;-77
2023/05/14 02:24:31;;;;;;;;;8.25;7.00;;;;;24.54;38.93;101895.81;6304455;22;51022;-77
2023/05/14 02:26:59;;;;;;;;;8.33;7.67;;;;;24.68;38.80;101921.69;6304435;22;45907;-77
2023/05/14 02:29:25;;;;;;;;;7.67;7.33;;;;;24.70;38.75;101921.50;6304080;22;45264;-77
2023/05/14 02:31:50;;;;;;;;;8.75;7.75;;;;;24.68;38.76;101919.03;6304602;22;45630;-77
2023/05/14 02:34:15;;;;;;;;;6.67;6.33;;;;;24.68;38.82;101916.38;6304433;22;45217;-77
2023/05/14 02:36:41;;;;;;;;;8.00;7.00;;;;;24.57;38.92;101900.75;6304464;22;45900;-77
2023/05/14 02:39:06;;;;;;;;;7.00;7.00;;;;;24.65;39.01;101910.53;6304162;22;45197;-77
2023/05/14 02:41:31;;;;;;;;;7.50;7.00;;;;;24.67;38.81;101916.53;6304207;22;45358;-76
2023/05/14 02:43:57;;;;;;;;;7.33;6.67;;;;;24.62;38.87;101899.25;6304163;22;45459;-77
2023/05/14 02:46:22;;;;;;;;;7.75;7.50;;;;;24.58;38.87;101903.25;6303949;22;50933;-77
2023/05/14 02:48:47;;;;;;;;;8.75;8.75;;;;;24.61;38.90;101910.06;6303470;22;45248;-76
2023/05/14 02:51:13;;;;;;;;;9.75;8.50;;;;;24.57;38.86;101903.41;6302645;22;45240;-77
2023/05/14 02:53:38;;;;;;;;;8.00;8.00;;;;;24.59;39.07;101898.78;6304373;22;45403;-76
2023/05/14 02:56:03;;;;;;;;;6.50;6.25;;;;;24.67;38.71;101908.56;6301947;22;52571;-77
2023/05/14 02:58:29;;;;;;;;;8.33;8.00;;;;;24.68;38.79;101910.19;6304190;22;45305;-77
2023/05/14 03:00:54;;;;;;;;;10.00;10.00;;;;;24.63;38.72;101903.56;6304100;22;45279;-77
2023/05/14 03:03:20;;;;;;;;;7.75;7.25;;;;;24.38;38.71;101866.41;6303633;22;45296;-77
2023/05/14 03:05:45;;;;;;;;;8.00;7.00;;;;;24.65;38.72;101905.22;6304022;22;45999;-77
2023/05/14 03:08:10;;;;;;;;;6.67;6.67;;;;;24.62;38.75;101907.22;6303901;22;47327;-77
2023/05/14 03:10:36;;;;;;;;;7.00;7.00;;;;;24.61;38.56;101904.75;6302579;22;45306;-78
2023/05/14 03:13:01;;;;;;;;;0.00;0.00;;;;;24.71;38.38;101912.53;6303881;22;45401;-76
2023/05/14 03:15:26;;;;;;;;;9.00;6.25;;;;;24.39;38.54;101870.72;6302181;22;45825;-77
2023/05/14 03:17:52;;;;;;;;;8.67;7.00;;;;;24.63;38.49;101906.25;6303049;22;45300;-77
2023/05/14 03:20:17;;;;;;;;;7.00;7.00;;;;;24.60;38.50;101903.91;6303703;22;45228;-77
2023/05/14 03:22:43;;;;;;;;;8.00;5.33;;;;;24.63;38.46;101911.56;6304321;22;45236;-77
2023/05/14 03:25:08;;;;;;;;;7.67;7.00;;;;;24.61;38.39;101910.06;6303472;22;45299;-77
2023/05/14 03:27:34;;;;;;;;;8.25;7.75;;;;;24.63;38.30;101911.56;6302343;22;45236;-78
2023/05/14 03:29:59;;;;;;;;;10.00;7.00;;;;;24.71;38.34;101921.34;6303753;22;45611;-77
2023/05/14 03:32:25;;;;;;;;;8.75;8.00;;;;;24.61;38.23;101904.75;6304214;22;45233;-78
2023/05/14 03:34:50;;;;;;;;;9.00;8.00;;;;;24.70;38.21;101925.00;6305239;22;45188;-77
2023/05/14 03:37:15;;;;;;;;;10.75;9.00;;;;;24.66;38.29;101914.88;6305266;22;45221;-77
2023/05/14 03:39:41;;;;;;;;;5.67;5.67;;;;;24.69;38.39;101915.38;6305661;22;45205;-77
2023/05/14 03:42:06;;;;;;;;;7.00;7.00;;;;;24.68;38.40;101908.38;6305146;22;45269;-77
2023/05/14 03:44:31;;;;;;;;;6.33;6.00;;;;;24.71;38.65;101912.53;6304929;22;46322;-77
2023/05/14 03:46:57;;;;;;;;;7.00;7.00;;;;;24.72;38.40;101916.84;6304843;22;45262;-77
2023/05/14 03:49:22;;;;;;;;;5.25;5.25;;;;;24.73;38.20;101918.50;6305603;22;45236;-77
2023/05/14 03:51:47;;;;;;;;;8.00;8.00;;;;;24.65;38.14;101906.06;6305219;22;45414;-77
2023/05/14 03:54:13;;;;;;;;;8.00;7.33;;;;;24.66;38.18;101901.56;6305313;22;45292;-77
2023/05/14 03:56:38;;;;;;;;;7.75;7.25;;;;;24.74;38.57;101917.50;6305350;22;45259;-77
2023/05/14 03:59:03;;;;;;;;;9.75;8.00;;;;;24.56;38.32;101888.47;6305516;22;45194;-76
2023/05/14 04:01:29;;;;;;;;;8.33;7.33;;;;;24.71;38.34;101913.38;6305113;22;45454;-77
2023/05/14 04:03:54;;;;;;;;;6.25;6.00;;;;;24.63;38.15;101898.25;6305403;22;45976;-76
2023/05/14 04:06:19;;;;;;;;;9.00;7.67;;;;;24.71;38.50;101913.38;6305138;22;45329;-75
2023/05/14 04:08:45;;;;;;;;;7.00;7.00;;;;;24.52;38.55;101890.63;6305664;22;45322;-77
2023/05/14 04:11:10;;;;;;;;;8.67;7.33;;;;;24.70;38.31;101916.19;6303433;22;45452;-77
2023/05/14 04:13:35;;;;;;;;;9.75;9.00;;;;;24.68;38.69;101921.69;6305164;22;45304;-77
2023/05/14 04:16:01;;;;;;;;;3.67;3.00;;;;;24.63;38.65;101903.56;6304561;22;45325;-77
2023/05/14 04:18:26;;;;;;;;;7.67;7.67;;;;;24.67;38.81;101903.25;6303320;22;45260;-77
2023/05/14 04:20:51;;;;;;;;;8.00;6.75;;;;;24.53;38.69;101887.00;6304946;22;45279;-77
2023/05/14 04:23:17;;;;;;;;;8.00;7.00;;;;;24.58;38.68;101899.78;6303092;22;48685;-77
2023/05/14 04:25:42;;;;;;;;;8.00;7.00;;;;;24.50;38.67;101892.66;6304719;22;45304;-77
2023/05/14 04:28:07;;;;;;;;;7.75;7.00;;;;;24.65;38.73;101931.81;6304986;22;45268;-77
2023/05/14 04:30:33;;;;;;;;;8.00;7.25;;;;;24.61;38.75;101918.88;6302929;22;45524;-77
2023/05/14 04:32:58;;;;;;;;;8.33;8.33;;;;;24.56;38.67;101915.09;6304624;22;45335;-77
2023/05/14 04:35:23;;;;;;;;;7.33;6.33;;;;;24.53;38.64;101918.91;6305281;22;45320;-77
2023/05/14 04:37:49;;;;;;;;;6.00;6.00;;;;;24.63;38.70;101930.19;6305251;22;45193;-76
2023/05/14 04:40:15;;;;;;;;;6.67;6.00;;;;;24.52;38.59;101914.59;6305389;22;45207;-77
2023/05/14 04:42:41;;;;;;;;;7.67;6.67;;;;;24.56;38.60;101913.25;6304178;22;46152;-76
2023/05/14 04:45:07;;;;;;;;;12.67;9.33;;;;;24.60;38.73;101929.69;6304108;22;45205;-77
2023/05/14 04:47:33;;;;;;;;;7.00;7.00;;;;;24.44;38.39;101903.97;6302867;22;45278;-76
2023/05/14 04:49:58;;;;;;;;;8.00;8.00;;;;;24.63;38.44;101932.00;6305219;22;45285;-77
2023/05/14 04:52:24;;;;;;;;;7.00;7.00;;;;;24.62;38.49;101933.84;6304387;22;45380;-77
2023/05/14 04:54:50;;;;;;;;;8.25;8.25;;;;;24.68;38.30;101947.47;6304694;22;45327;-77
2023/05/14 04:57:16;;;;;;;;;9.33;6.00;;;;;24.68;38.54;101944.78;6304742;22;45288;-77
2023/05/14 04:59:41;;;;;;;;;9.00;9.00;;;;;24.69;38.07;101943.81;6304857;22;45255;-77
2023/05/14 05:02:07;;;;;;;;;7.67;7.67;;;;;24.70;38.31;101945.44;6305178;22;46273;-77
2023/05/14 05:04:32;;;;;;;;;6.00;6.00;;;;;24.57;38.04;101924.69;6305209;22;45321;-77
2023/05/14 05:06:57;;;;;;;;;7.00;7.00;;;;;24.62;38.53;101935.66;6305244;22;45253;-78
2023/05/14 05:09:23;;;;;;;;;8.00;7.00;;;;;24.68;38.30;101945.63;6304960;22;45487;-78
2023/05/14 05:11:48;;;;;;;;;7.33;7.33;;;;;24.67;38.50;101943.97;6305144;22;45221;-77
2023/05/14 05:14:14;;;;;;;;;3.33;2.33;;;;;24.67;38.43;101945.81;6304863;22;45348;-77
2023/05/14 05:16:39;;;;;;;;;8.00;6.67;;;;;24.67;38.57;101948.47;6305265;22;45149;-77
2023/05/14 05:19:04;;;;;;;;;8.00;7.00;;;;;24.61;38.38;101942.84;6304771;22;45403;-76
2023/05/14 05:21:30;;;;;;;;;8.00;8.00;;;;;24.56;38.39;101931.03;6304528;22;47078;-77
2023/05/14 05:23:55;;;;;;;;;10.00;8.75;;;;;24.65;38.56;101961.94;6305131;22;45146;-77
2023/05/14 05:26:21;;;;;;;;;7.00;7.00;;;;;24.55;38.71;101946.16;6304862;22;45257;-78
2023/05/14 05:28:46;;;;;;;;;7.67;7.67;;;;;24.55;38.50;101953.31;6302757;22;45460;-78
2023/05/14 05:31:12;;;;;;;;;6.33;6.33;;;;;24.60;38.77;101966.94;6304798;22;46390;-76
2023/05/14 05:33:37;;;;;;;;;6.67;6.67;;;;;24.60;38.20;101967.78;6304975;22;45246;-77
2023/05/14 05:36:03;;;;;;;;;7.33;7.00;;;;;24.60;38.75;101970.44;6304788;22;45280;-77
2023/05/14 05:38:28;;;;;;;;;10.25;8.00;;;;;24.56;38.60;101963.81;6304633;22;45455;-77
2023/05/14 05:40:54;;;;;;;;;7.33;7.33;;;;;24.63;38.26;101964.78;6302767;22;48948;-77
2023/05/14 05:43:19;;;;;;;;;6.00;6.00;;;;;24.55;38.54;101963.97;6304605;22;45290;-77
2023/05/14 05:45:45;;;;;;;;;7.00;7.00;;;;;24.54;38.55;101957.81;6304450;22;45539;-76
2023/05/14 05:48:10;;;;;;;;;6.25;5.75;;;;;24.56;38.61;101966.47;6304701;22;45340;-77
2023/05/14 05:50:36;;;;;;;;;9.25;8.00;;;;;24.54;38.94;101959.66;6304437;22;46030;-77
2023/05/14 05:53:01;;;;;;;;;7.00;7.00;;;;;24.49;38.67;101963.63;6304981;22;45304;-77
2023/05/14 05:55:27;;;;;;;;;7.33;6.00;;;;;24.51;38.57;101966.16;6304393;22;45292;-77
2023/05/14 05:57:53;;;;;;;;;6.67;6.67;;;;;24.62;38.50;101987.06;6304206;22;45298;-78
2023/05/14 06:00:19;;;;;;;;;7.00;6.67;;;;;24.60;38.53;101983.75;6304195;22;46752;-77
2023/05/14 06:02:45;;;;;;;;;6.00;6.00;;;;;24.55;38.30;101962.13;6304367;22;45218;-77
2023/05/14 06:05:11;;;;;;;;;11.00;9.67;;;;;24.56;38.16;101969.13;6304416;22;45211;-77
2023/05/14 06:07:36;;;;;;;;;7.00;6.75;;;;;24.64;38.41;101981.59;6304223;22;45309;-76
2023/05/14 06:10:02;;;;;;;;;7.33;7.33;;;;;24.62;38.34;101972.91;6304701;22;45311;-76
2023/05/14 06:12:27;;;;;;;;;7.00;7.00;;;;;24.56;38.31;101981.59;6304159;22;45385;-77
2023/05/14 06:14:54;;;;;;;;;8.75;7.00;;;;;24.66;38.22;101989.38;6304562;22;45222;-77
2023/05/14 06:17:20;;;;;;;;;6.75;6.75;;;;;24.66;38.46;101994.69;6304368;22;45345;-77
2023/05/14 06:19:45;;;;;;;;;6.33;6.33;;;;;24.54;38.13;101979.09;6303951;22;46814;-77
2023/05/14 06:22:10;;;;;;;;;7.00;7.00;;;;;24.57;38.56;101983.22;6304101;22;45273;-77
2023/05/14 06:24:36;;;;;;;;;6.67;6.00;;;;;24.61;38.28;101984.56;6304597;22;45718;-77
2023/05/14 06:27:01;;;;;;;;;9.00;8.00;;;;;24.52;38.11;101965.13;6303683;22;51858;-76
2023/05/14 06:29:26;;;;;;;;;7.00;7.00;;;;;24.57;38.62;101985.91;6304014;22;46873;-77
2023/05/14 06:31:52;;;;;;;;;7.67;6.00;;;;;24.57;38.38;101984.06;6304087;22;45323;-77
2023/05/14 06:34:17;;;;;;;;;6.33;6.00;;;;;24.66;38.41;101994.69;6304258;22;45252;-76
2023/05/14 06:36:43;;;;;;;;;6.00;6.00;;;;;24.66;38.19;101992.88;6304540;22;45384;-76
2023/05/14 06:39:08;;;;;;;;;9.33;7.33;;;;;24.65;38.40;101985.88;6302701;22;46227;-76
2023/05/14 06:41:34;;;;;;;;;6.00;6.00;;;;;24.59;38.16;101973.28;6303576;22;45260;-76
2023/05/14 06:43:59;;;;;;;;;5.75;5.75;;;;;24.58;38.29;101963.63;6303958;22;45194;-76
2023/05/14 06:46:24;;;;;;;;;6.33;5.33;;;;;24.65;38.46;101991.19;6303764;22;45265;-77
2023/05/14 06:48:50;;;;;;;;;9.50;9.50;;;;;24.38;38.73;101951.53;6304117;22;45240;-76
2023/05/14 06:51:15;;;;;;;;;8.75;8.75;;;;;24.57;38.24;101973.44;6304340;22;45445;-77
2023/05/14 06:53:40;;;;;;;;;6.50;6.50;;;;;24.59;38.30;101962.63;6304351;22;45347;-76
2023/05/14 06:56:06;;;;;;;;;7.00;7.00;;;;;24.48;38.44;101954.00;6304212;22;45297;-77
2023/05/14 06:58:32;;;;;;;;;6.67;6.67;;;;;24.54;38.34;101971.09;6303746;22;47007;-76
2023/05/14 07:00:57;;;;;;;;;6.33;5.33;;;;;24.62;38.54;101988.88;6304222;22;45388;-77
2023/05/14 07:03:23;;;;;;;;;5.67;5.67;;;;;24.59;38.57;101978.59;6304609;22;45268;-77
2023/05/14 07:05:48;;;;;;;;;9.00;8.00;;;;;24.47;38.51;101956.81;6304011;22;45267;-77
2023/05/14 07:08:14;;;;;;;;;6.33;6.00;;;;;24.60;38.52;101975.75;6304483;22;46422;-77
2023/05/14 07:10:39;;;;;;;;;6.00;6.00;;;;;24.52;38.70;101962.47;6305235;22;45410;-76
2023/05/14 07:13:05;;;;;;;;;7.00;6.00;;;;;24.55;38.38;101972.78;6305355;22;45399;-77
2023/05/14 07:15:30;;;;;;;;;6.00;6.00;;;;;24.48;38.39;101963.81;6305781;22;45417;-76
2023/05/14 07:17:55;;;;;;;;;10.33;8.33;;;;;24.59;38.42;101976.75;6305121;22;46033;-77
2023/05/14 07:20:22;;;;;;;;;7.00;7.00;;;;;24.60;38.07;101970.44;6305442;22;45305;-77
2023/05/14 07:22:48;;;;;;;;;6.00;5.00;;;;;24.59;38.33;101978.59;6304988;22;45340;-76
2023/05/14 07:25:14;;;;;;;;;6.67;6.67;;;;;24.37;38.27;101936.56;6305113;22;45268;-77
2023/05/14 07:27:40;;;;;;;;;7.00;7.00;;;;;24.56;38.05;101970.94;6305024;22;45225;-76
2023/05/14 07:30:06;;;;;;;;;6.67;6.67;;;;;24.50;38.08;101954.66;6305548;22;45382;-76
2023/05/14 07:32:31;;;;;;;;;8.00;7.00;;;;;24.60;38.17;101965.13;6303555;22;45350;-76
2023/05/14 07:34:57;;;;;;;;;7.67;6.33;;;;;24.64;38.44;101973.59;6305459;22;45455;-77
2023/05/14 07:37:24;;;;;;;;;6.67;6.67;;;;;24.61;38.21;101965.94;6305000;22;45203;-76
2023/05/14 07:39:50;;;;;;;;;5.33;5.33;;;;;24.56;38.33;101958.47;6305045;22;45372;-77
2023/05/14 07:42:15;;;;;;;;;5.00;5.00;;;;;24.64;38.23;101976.25;6303727;22;45330;-76
2023/05/14 07:44:41;;;;;;;;;8.00;8.00;;;;;24.59;38.00;101960.78;6304138;22;45399;-76
2023/05/14 07:47:07;;;;;;;;;7.33;6.67;;;;;24.57;38.23;101956.63;6304889;22;46204;-76
2023/05/14 07:49:32;;;;;;;;;6.00;6.00;;;;;24.51;38.24;101953.66;6304934;22;45276;-76
2023/05/14 07:51:58;;;;;;;;;7.00;7.00;;;;;24.57;38.29;101962.78;6304613;22;45375;-76
2023/05/14 07:54:23;;;;;;;;;7.33;7.00;;;;;24.62;38.26;101972.91;6305169;22;45486;-77
2023/05/14 07:56:48;;;;;;;;;8.00;7.00;;;;;24.64;38.14;101973.59;6305241;22;45184;-77
2023/05/14 07:59:14;;;;;;;;;7.67;6.33;;;;;24.64;38.32;101973.59;6305598;22;45336;-76
2023/05/14 08:01:39;;;;;;;;;11.75;7.00;;;;;24.63;38.14;101974.59;6305472;22;45263;-77
2023/05/14 08:04:04;;;;;;;;;7.00;6.00;;;;;24.59;38.45;101973.28;6305441;22;45399;-77
2023/05/14 08:06:30;;;;;;;;;9.33;7.00;;;;;24.63;38.57;101963.94;6304557;22;45600;-76
2023/05/14 08:08:55;;;;;;;;;7.00;7.00;;;;;24.63;38.14;101975.41;6304882;22;45283;-77
2023/05/14 08:11:21;;;;;;;;;7.33;7.33;;;;;24.58;38.13;101964.47;6305706;22;45355;-75
2023/05/14 08:13:46;;;;;;;;;6.67;6.67;;;;;24.50;38.06;101959.16;6304934;22;45234;-76
2023/05/14 08:16:11;;;;;;;;;8.33;6.67;;;;;24.49;38.42;101960.13;6304701;22;47170;-76
2023/05/14 08:18:37;;;;;;;;;8.67;8.67;;;;;24.61;38.37;101980.09;6304645;22;45280;-77
2023/05/14 08:21:02;;;;;;;;;9.25;9.25;;;;;24.46;38.44;101955.19;6304483;22;48773;-76
2023/05/14 08:23:27;;;;;;;;;9.33;6.00;;;;;24.49;38.09;101968.97;6304932;22;45447;-76
2023/05/14 08:25:53;;;;;;;;;8.00;5.50;;;;;24.57;38.26;101967.28;6304973;22;46244;-76
2023/05/14 08:28:18;;;;;;;;;7.50;7.50;;;;;24.63;38.22;101985.22;6304950;22;45230;-76
2023/05/14 08:30:44;;;;;;;;;6.50;6.00;;;;;24.58;38.25;101979.59;6305424;22;45313;-76
2023/05/14 08:33:09;;;;;;;;;6.00;6.00;;;;;24.64;38.42;101978.91;6304897;22;45352;-76
2023/05/14 08:35:35;;;;;;;;;7.00;7.00;;;;;24.65;38.30;101983.22;6304683;22;45310;-76
2023/05/14 08:38:00;;;;;;;;;7.00;6.67;;;;;24.51;38.11;101951.00;6304611;22;45278;-76
2023/05/14 08:40:26;;;;;;;;;7.67;6.00;;;;;24.54;38.26;101954.34;6303354;22;45252;-76
2023/05/14 08:42:52;;;;;;;;;6.67;6.67;;;;;24.57;38.17;101956.63;6305378;22;45221;-75
2023/05/14 08:45:19;;;;;;;;;6.33;6.33;;;;;24.51;38.13;101944.88;6305174;22;46008;-75
2023/05/14 08:47:50;;;;;;;;;7.00;6.00;;;;;24.68;38.19;101958.94;6304493;22;45221;-76
2023/05/14 08:50:16;;;;;;;;;7.33;6.00;;;;;24.51;38.06;101934.22;6304751;22;45272;-76
2023/05/14 08:52:42;;;;;;;;;5.75;5.75;;;;;24.71;38.00;101961.25;6303757;22;45422;-74
2023/05/14 08:55:08;;;;;;;;;11.00;7.00;;;;;24.74;38.35;101952.09;6304090;22;47196;-77
2023/05/14 08:57:34;;;;;;;;;11.33;8.00;;;;;24.81;38.57;101947.75;6303485;22;45464;-77
2023/05/14 09:00:00;;;;;;;;;10.33;8.33;;;;;24.85;38.37;101943.72;6305002;22;45242;-75
2023/05/14 09:02:30;;;;;;;;;11.00;9.25;;;;;24.91;37.15;101949.38;6304550;22;45477;-74
2023/05/14 09:04:59;;;;;;;;;13.50;11.75;;;;;24.90;37.25;101947.72;6303920;22;46137;-74
2023/05/14 09:07:25;;;;;;;;;9.00;8.00;;;;;24.89;37.27;101940.72;6304333;22;45311;-75
2023/05/14 09:09:51;;;;;;;;;8.50;8.50;;;;;24.96;37.37;101944.34;6304220;22;45301;-75
2023/05/14 09:12:16;;;;;;;;;11.00;10.50;;;;;25.01;37.78;101949.22;6304264;22;45514;-76
2023/05/14 09:14:42;;;;;;;;;9.25;8.00;;;;;25.05;37.83;101943.34;6304223;22;46914;-75
2023/05/14 09:17:07;;;;;;;;;9.00;7.50;;;;;25.12;37.83;101953.28;6304714;22;45811;-75
2023/05/14 09:19:33;;;;;;;;;9.67;8.00;;;;;24.91;37.78;101904.94;6304027;22;45272;-75
2023/05/14 09:21:58;;;;;;;;;8.75;7.00;;;;;25.20;37.96;101942.59;6302542;22;45254;-76
2023/05/14 09:24:27;;;;;;;;;7.00;7.00;;;;;25.25;37.96;101940.25;6304127;22;46343;-76
2023/05/14 09:26:55;;;;;;;;;7.00;6.00;;;;;25.29;37.98;101944.19;6304409;22;45309;-76
2023/05/14 09:29:25;;;;;;;;;6.00;6.00;;;;;25.33;38.13;101946.53;6304585;22;45232;-78
2023/05/14 09:31:51;;;;;;;;;8.00;8.00;;;;;25.37;37.83;101945.19;6304659;22;45342;-75
2023/05/14 09:34:28;;;;;;;;;9.33;8.33;;;;;25.38;38.29;101936.16;6304148;22;45324;-72
2023/05/14 09:37:01;;;;;;;;;11.33;5.00;;;;;25.44;38.17;101950.63;6304105;22;45292;-75
2023/05/14 09:39:27;;;;;;;;;9.00;7.67;;;;;25.47;37.96;101947.59;6304496;22;45419;-75
2023/05/14 09:41:53;;;;;;;;;55.75;38.75;;;;;25.42;37.04;101932.16;6304737;22;45738;-75
2023/05/14 09:44:18;;;;;;;;;33.75;21.75;;;;;25.47;37.41;101932.47;6303825;22;46310;-73
2023/05/14 09:46:45;;;;;;;;;27.75;17.50;;;;;25.43;37.30;101932.97;6303814;22;45312;-72
2023/05/14 09:49:10;;;;;;;;;23.25;15.75;;;;;25.51;37.36;101936.41;6302323;22;45257;-72
2023/05/14 09:51:36;;;;;;;;;18.75;16.50;;;;;25.55;37.70;101936.91;6302967;22;45221;-72
2023/05/14 09:54:03;;;;;;;;;22.75;14.50;;;;;25.56;37.63;101938.53;6304090;22;46929;-74
2023/05/14 09:56:29;;;;;;;;;18.50;14.75;;;;;25.57;37.55;101932.22;6303944;22;45217;-73
2023/05/14 09:58:55;;;;;;;;;22.00;17.50;;;;;25.58;37.76;101919.72;6304266;22;45303;-73
2023/05/14 10:01:21;;;;;;;;;22.25;16.00;;;;;25.66;37.65;101930.28;6303841;22;45317;-72
2023/05/14 10:03:48;;;;;;;;;14.75;13.25;;;;;25.67;37.39;101929.31;6303909;22;45327;-73
2023/05/14 10:06:16;;;;;;;;;17.75;14.25;;;;;25.70;37.54;101931.63;6303858;22;45275;-72
2023/05/14 10:08:44;;;;;;;;;23.75;18.75;;;;;25.73;37.42;101935.75;6303707;22;45170;-73
2023/05/14 10:11:23;;;;;;;;;21.25;14.50;;;;;25.74;37.76;101930.28;6303946;22;45485;-72
2023/05/14 10:13:57;;;;;;;;;14.75;13.25;;;;;25.74;37.21;101930.28;6303793;22;45963;-73
2023/05/14 10:16:30;;;;;;;;;20.75;13.50;;;;;25.76;37.07;101930.09;6304430;22;45268;-71
2023/05/14 10:19:06;;;;;;;;;17.25;12.75;;;;;25.75;37.03;101923.09;6304253;22;45729;-72
2023/05/14 10:21:35;;;;;;;;;15.00;10.25;;;;;25.75;37.24;101923.09;6303960;22;45416;-71
2023/05/14 10:24:03;;;;;;;;;22.25;14.25;;;;;25.67;36.99;101913.31;6303541;22;46093;-73
2023/05/14 10:26:29;;;;;;;;;18.50;13.75;;;;;25.75;36.95;101920.44;6303676;22;45233;-72
2023/05/14 10:28:55;;;;;;;;;23.00;14.75;;;;;25.73;36.67;101928.63;6304537;22;45342;-72
2023/05/14 10:31:45;;;;;;;;;14.50;14.50;;;;;25.68;36.05;101919.47;6303723;22;45335;-75
2023/05/14 10:34:37;;;;;;;;;17.50;16.75;;;;;25.54;35.88;101915.75;6303751;22;46285;-73
2023/05/14 10:37:08;;;;;;;;;12.50;12.50;;;;;25.36;35.58;101912.38;6303695;22;45287;-73
2023/05/14 10:39:41;;;;;;;;;17.50;16.75;;;;;25.17;35.29;101913.66;6304054;22;45163;-75
2023/05/14 10:42:11;;;;;;;;;13.75;12.75;;;;;24.88;35.09;101888.50;6303231;22;45337;-74
2023/05/14 10:44:45;;;;;;;;;14.75;13.75;;;;;24.65;35.57;101887.44;6303715;22;46342;-77
2023/05/14 10:47:11;;;;;;;;;15.75;13.75;;;;;24.65;36.12;101903.41;6303439;22;45323;-75
2023/05/14 10:49:36;;;;;;;;;13.75;12.75;;;;;24.57;36.32;101901.59;6304312;22;45221;-73
2023/05/14 10:52:02;;;;;;;;;14.50;12.75;;;;;24.50;36.35;101901.47;6303931;22;45319;-73
2023/05/14 10:54:27;;;;;;;;;17.00;16.00;;;;;24.46;36.69;101902.78;6302168;22;47385;-72
2023/05/14 10:56:52;;;;;;;;;15.00;14.25;;;;;24.39;36.51;101896.50;6302158;22;45351;-78
2023/05/14 10:59:18;;;;;;;;;19.50;18.25;;;;;24.25;36.62;101895.34;6304053;22;45313;-73
2023/05/14 11:01:44;;;;;;;;;18.75;16.50;;;;;24.07;36.42;101885.75;6303462;22;45291;-72
2023/05/14 11:04:17;;;;;;;;;17.00;15.25;;;;;24.01;36.32;101886.41;6303651;22;47118;-74
2023/05/14 11:06:45;;;;;;;;;14.00;12.25;;;;;23.89;36.62;101880.63;6303572;22;45334;-74
2023/05/14 11:09:14;;;;;;;;;15.75;14.25;;;;;23.89;36.69;101878.78;6304145;22;45241;-74
2023/05/14 11:11:40;;;;;;;;;17.00;16.00;;;;;23.82;37.14;101867.16;6303704;22;45464;-74
2023/05/14 11:14:05;;;;;;;;;14.75;12.75;;;;;23.74;37.25;101852.06;6303269;22;47018;-74
2023/05/14 11:16:31;;;;;;;;;15.50;15.50;;;;;23.83;37.30;101859.03;6303169;22;45304;-74
2023/05/14 11:19:01;;;;;;;;;12.25;12.00;;;;;23.95;36.92;101872.81;6303601;22;45272;-74